Terminal Aerodrome Forecast
Issued by NWS

Current Version | Previous Version | Text Only | Print | Product List | Glossary On
Versions: 1 2 3 4 5 6 7 8 9 10 11 12 13 14 15 16 17 18 19
000
FTUS41 KILN 291100 RRA
TAFLUK
TAF
KLUK 291143Z 2912/3012 18012KT P6SM SCT080 OVC150
      TEMPO 2912/2913 -SHRA BKN080
     FM291600 22014G24KT P6SM BKN025 OVC150
     FM292000 27015G25KT P6SM OVC015
     FM300200 29012KT P6SM OVC018
     FM300800 30011KT P6SM OVC025=

USA.gov is the U.S. government's official web portal to all federal, state and local government web resources and services.